Terminal Aerodrome Forecast
Issued by NWS Amarillo, TX

Home | Current Version | Previous Version | Text Only | Print | Product List | Glossary On
Versions: 1 2 3 4 5 6 7 8 9 10 11 12 13 14 15 16 17 18 19 20
000
FTUS44 KAMA 170000 CCA
TAFAMA
TAF COR
KAMA 170011Z 1700/1724 06015G25KT P6SM BKN150
     FM170300 04020G30KT P6SM OVC150
     FM171300 02018G26KT P6SM BKN018
     FM171900 04010KT P6SM SCT050=

USA.gov is the U.S. government's official web portal to all federal, state and local government web resources and services.